createdAt,value
2023-04-22T00:00:57.339Z,94448.28
2023-04-22T00:04:06.103Z,94445.19
2023-04-22T00:07:15.826Z,94449.81
2023-04-22T00:10:24.160Z,94448.19
2023-04-22T00:13:32.609Z,94449.16
2023-04-22T00:16:42.643Z,94444.81
2023-04-22T00:19:51.091Z,94448.91
2023-04-22T00:22:59.713Z,94444.81
2023-04-22T00:26:07.826Z,94453.34
2023-04-22T00:29:16.240Z,94450.47
2023-04-22T00:32:26.535Z,94450.13
2023-04-22T00:35:34.717Z,94449.25
2023-04-22T00:38:49.552Z,94448.75
2023-04-22T00:41:57.929Z,94456.06
2023-04-22T00:45:12.362Z,94448.34
2023-04-22T00:48:22.893Z,94444.22
2023-04-22T00:51:33.507Z,94439.94
2023-04-22T00:54:41.633Z,94441.34
2023-04-22T00:57:52.924Z,94447.84
2023-04-22T01:01:01.589Z,94441.34
2023-04-22T01:04:12.650Z,94445.38
2023-04-22T01:07:21.747Z,94441.28
2023-04-22T01:10:30.426Z,94440.84
2023-04-22T01:13:38.809Z,94448.53
2023-04-22T01:16:48.280Z,94448.16
2023-04-22T01:19:59.461Z,94446.47
2023-04-22T01:23:16.336Z,94452.56
2023-04-22T01:26:24.671Z,94457.41
2023-04-22T01:29:33.533Z,94455.34
2023-04-22T01:32:43.351Z,94444.41
2023-04-22T01:35:51.758Z,94440.72
2023-04-22T01:39:01.934Z,94441.34
2023-04-22T01:42:11.819Z,94440.28
2023-04-22T01:45:22.169Z,94443.75
2023-04-22T01:48:31.732Z,94442.94
2023-04-22T01:51:40.333Z,94452.06
2023-04-22T01:54:50.322Z,94446.00
2023-04-22T01:57:58.486Z,94451.31
2023-04-22T02:01:07.645Z,94458.53
2023-04-22T02:04:18.045Z,94455.78
2023-04-22T02:07:26.576Z,94453.06
2023-04-22T02:10:36.486Z,94453.81
2023-04-22T02:13:44.847Z,94458.41
2023-04-22T02:16:52.978Z,94451.78
2023-04-22T02:20:01.379Z,94456.16
2023-04-22T02:23:12.600Z,94456.16
2023-04-22T02:26:22.066Z,94457.28
2023-04-22T02:29:32.107Z,94456.47
2023-04-22T02:32:40.414Z,94462.91
2023-04-22T02:35:48.622Z,94454.63
2023-04-22T02:39:00.160Z,94458.84
2023-04-22T02:42:09.833Z,94456.09
2023-04-22T02:45:18.713Z,94463.66
2023-04-22T02:48:27.107Z,94457.28
2023-04-22T02:51:35.513Z,94465.00
2023-04-22T02:54:43.748Z,94461.75
2023-04-22T02:57:53.242Z,94457.19
2023-04-22T03:01:01.664Z,94444.97
2023-04-22T03:04:10.003Z,94444.97
2023-04-22T03:07:18.227Z,94444.06
2023-04-22T03:10:26.413Z,94442.25
2023-04-22T03:13:36.149Z,94439.53
2023-04-22T03:16:44.307Z,94444.34
2023-04-22T03:19:52.560Z,94454.19
2023-04-22T03:23:02.461Z,94446.53
2023-04-22T03:26:12.069Z,94440.34
2023-04-22T03:29:22.508Z,94439.44
2023-04-22T03:32:30.644Z,94446.50
2023-04-22T03:35:56.370Z,94440.75
2023-04-22T03:39:06.077Z,94438.47
2023-04-22T03:42:16.256Z,94441.81
2023-04-22T03:45:28.084Z,94441.66
2023-04-22T03:48:50.732Z,94442.00
2023-04-22T03:52:07.503Z,94443.63
2023-04-22T03:55:18.883Z,94443.28
2023-04-22T03:58:28.282Z,94442.38
2023-04-22T04:01:40.705Z,94443.88
2023-04-22T04:04:51.201Z,94450.69
2023-04-22T04:08:00.745Z,94448.13
2023-04-22T04:11:10.879Z,94453.06
2023-04-22T04:14:19.977Z,94458.81
2023-04-22T04:17:31.511Z,94449.63
2023-04-22T04:20:41.753Z,94450.63
2023-04-22T04:23:50.538Z,94453.47
2023-04-22T04:27:03.161Z,94454.41
2023-04-22T04:30:19.777Z,94452.06
2023-04-22T04:33:37.167Z,94459.91
2023-04-22T04:36:46.602Z,94458.34
2023-04-22T04:40:03.527Z,94456.59
2023-04-22T04:43:25.903Z,94457.53
2023-04-22T04:47:01.093Z,94461.13
2023-04-22T04:50:12.678Z,94454.28
2023-04-22T04:53:23.914Z,94450.91
2023-04-22T04:56:34.946Z,94449.16
2023-04-22T04:59:44.496Z,94459.63
2023-04-22T05:02:54.198Z,94451.72
2023-04-22T05:06:06.008Z,94458.06
2023-04-22T05:09:16.838Z,94447.94
2023-04-22T05:12:28.061Z,94452.25
2023-04-22T05:15:37.482Z,94458.41
2023-04-22T05:18:45.673Z,94454.81
2023-04-22T05:21:58.009Z,94453.16
2023-04-22T05:25:07.589Z,94452.22
2023-04-22T05:28:16.362Z,94450.81
2023-04-22T05:31:31.774Z,94454.16
2023-04-22T05:34:40.157Z,94458.44
2023-04-22T05:37:49.699Z,94450.75
2023-04-22T05:40:58.355Z,94445.56
2023-04-22T05:44:07.005Z,94452.06
2023-04-22T05:47:15.991Z,94445.56
2023-04-22T05:50:24.621Z,94446.16
2023-04-22T05:53:43.584Z,94467.16
2023-04-22T05:56:52.079Z,94460.75
2023-04-22T06:00:01.150Z,94463.63
2023-04-22T06:03:09.913Z,94466.91
2023-04-22T06:06:18.300Z,94464.88
2023-04-22T06:09:29.812Z,94470.59
2023-04-22T06:12:37.941Z,94468.34
2023-04-22T06:15:46.054Z,94465.91
2023-04-22T06:18:54.173Z,94470.56
2023-04-22T06:22:04.171Z,94484.66
2023-04-22T06:25:13.703Z,94480.03
2023-04-22T06:28:21.762Z,94486.09
2023-04-22T06:31:32.414Z,94481.44
2023-04-22T06:34:41.224Z,94480.22
2023-04-22T06:37:49.610Z,94481.16
2023-04-22T06:40:59.776Z,94482.69
2023-04-22T06:44:12.529Z,94476.69
2023-04-22T06:47:41.962Z,94476.28
2023-04-22T06:50:54.057Z,94473.28
2023-04-22T06:54:02.895Z,94476.88
2023-04-22T06:57:12.492Z,94474.00
2023-04-22T07:00:20.689Z,94476.00
2023-04-22T07:03:29.036Z,94476.22
2023-04-22T07:06:48.050Z,94467.03
2023-04-22T07:09:56.447Z,94470.91
2023-04-22T07:13:09.695Z,94470.69
2023-04-22T07:16:17.987Z,94466.44
2023-04-22T07:19:26.509Z,94471.19
2023-04-22T07:22:34.637Z,94461.03
2023-04-22T07:25:42.964Z,94460.16
2023-04-22T07:28:52.571Z,94465.31
2023-04-22T07:32:00.785Z,94460.50
2023-04-22T07:35:09.899Z,94457.47
2023-04-22T07:38:18.243Z,94449.63
2023-04-22T07:41:26.447Z,94453.91
2023-04-22T07:44:38.205Z,94444.91
2023-04-22T07:47:47.595Z,94448.84
2023-04-22T07:50:55.656Z,94454.94
2023-04-22T07:54:03.896Z,94454.69
2023-04-22T07:57:11.978Z,94461.13
2023-04-22T08:00:21.805Z,94456.22
2023-04-22T08:03:30.064Z,94454.28
2023-04-22T08:06:38.368Z,94457.59
2023-04-22T08:09:46.674Z,94468.03
2023-04-22T08:12:55.492Z,94459.84
2023-04-22T08:16:07.450Z,94459.44
2023-04-22T08:19:15.669Z,94457.19
2023-04-22T08:22:24.168Z,94463.59
2023-04-22T08:25:32.946Z,94459.22
2023-04-22T08:28:42.070Z,94456.63
2023-04-22T08:31:52.277Z,94449.25
2023-04-22T08:35:04.872Z,94456.34
2023-04-22T08:38:14.101Z,94459.16
2023-04-22T08:41:24.544Z,94459.06
2023-04-22T08:44:33.012Z,94463.06
2023-04-22T08:47:44.122Z,94464.19
2023-04-22T08:50:54.642Z,94460.75
2023-04-22T08:54:05.573Z,94464.25
2023-04-22T08:57:16.468Z,94459.84
2023-04-22T09:00:24.990Z,94462.84
2023-04-22T09:03:36.415Z,94456.44
2023-04-22T09:06:45.089Z,94455.63
2023-04-22T09:09:55.672Z,94452.50
2023-04-22T09:13:05.610Z,94447.59
2023-04-22T09:16:13.785Z,94440.69
2023-04-22T09:19:27.499Z,94446.06
2023-04-22T09:22:41.141Z,94437.91
2023-04-22T09:25:49.395Z,94456.09
2023-04-22T09:29:00.686Z,94437.44
2023-04-22T09:32:12.662Z,94441.53
2023-04-22T09:35:29.110Z,94443.66
2023-04-22T09:38:37.187Z,94442.53
2023-04-22T09:41:45.261Z,94441.22
2023-04-22T09:44:53.950Z,94438.72
2023-04-22T09:48:07.918Z,94440.75
2023-04-22T09:51:19.258Z,94437.19
2023-04-22T09:54:27.585Z,94436.84
2023-04-22T09:57:40.539Z,94427.81
2023-04-22T10:00:54.598Z,94425.97
2023-04-22T10:04:03.102Z,94420.63
2023-04-22T10:07:14.310Z,94419.78
2023-04-22T10:10:23.447Z,94420.13
2023-04-22T10:13:31.483Z,94407.47
2023-04-22T10:16:41.533Z,94413.94
2023-04-22T10:19:51.470Z,94406.91
2023-04-22T10:23:04.675Z,94404.91
2023-04-22T10:26:12.801Z,94408.63
2023-04-22T10:29:22.898Z,94411.72
2023-04-22T10:32:31.849Z,94407.97
2023-04-22T10:35:39.939Z,94402.19
2023-04-22T10:39:18.780Z,94391.91
2023-04-22T10:42:30.218Z,94392.78
2023-04-22T10:45:38.585Z,94390.66
2023-04-22T10:48:49.960Z,94393.63
2023-04-22T10:52:00.140Z,94387.66
2023-04-22T10:55:10.692Z,94390.44
2023-04-22T10:58:21.835Z,94385.47
2023-04-22T11:01:30.019Z,94383.28
2023-04-22T11:04:39.423Z,94385.28
2023-04-22T11:07:50.526Z,94381.50
2023-04-22T11:11:13.593Z,94380.19
2023-04-22T11:14:22.965Z,94376.34
2023-04-22T11:17:32.581Z,94380.25
2023-04-22T11:20:41.623Z,94380.53
2023-04-22T11:23:53.390Z,94372.69
2023-04-22T11:27:02.994Z,94368.34
2023-04-22T11:30:14.709Z,94367.81
2023-04-22T11:33:22.984Z,94365.25
2023-04-22T11:36:31.549Z,94359.22
2023-04-22T11:39:50.250Z,94359.50
2023-04-22T11:43:10.763Z,94358.41
2023-04-22T11:46:31.415Z,94361.88
2023-04-22T11:49:40.272Z,94355.13
2023-04-22T11:52:52.262Z,94348.91
2023-04-22T11:56:04.298Z,94362.34
2023-04-22T11:59:14.571Z,94364.41
2023-04-22T12:02:27.428Z,94366.72
2023-04-22T12:05:42.074Z,94362.41
2023-04-22T12:08:51.996Z,94358.63
2023-04-22T12:12:01.681Z,94355.31
2023-04-22T12:15:16.160Z,94351.84
2023-04-22T12:18:38.225Z,94349.59
2023-04-22T12:21:47.136Z,94350.69
2023-04-22T12:24:59.358Z,94355.25
2023-04-22T12:28:08.951Z,94346.28
2023-04-22T12:31:19.947Z,94348.16
2023-04-22T12:34:28.599Z,94349.38
2023-04-22T12:37:37.481Z,94345.06
2023-04-22T12:40:46.019Z,94334.44
2023-04-22T12:43:55.768Z,94342.91
2023-04-22T12:47:05.919Z,94340.78
2023-04-22T12:50:15.121Z,94343.84
2023-04-22T12:53:23.474Z,94342.28
2023-04-22T12:56:32.731Z,94340.22
2023-04-22T12:59:42.738Z,94329.00
2023-04-22T13:02:53.305Z,94325.91
2023-04-22T13:06:03.014Z,94328.44
2023-04-22T13:09:11.804Z,94325.75
2023-04-22T13:12:19.989Z,94321.44
2023-04-22T13:15:30.287Z,94321.25
2023-04-22T13:18:40.959Z,94316.31
2023-04-22T13:21:49.247Z,94317.50
2023-04-22T13:24:57.886Z,94311.09
2023-04-22T13:28:06.146Z,94313.69
2023-04-22T13:31:14.228Z,94314.28
2023-04-22T13:34:23.822Z,94311.50
2023-04-22T13:37:32.234Z,94303.16
2023-04-22T13:40:40.488Z,94295.72
2023-04-22T13:43:54.139Z,94289.50
2023-04-22T13:47:02.903Z,94293.47
2023-04-22T13:50:13.382Z,94282.09
2023-04-22T13:53:21.917Z,94279.84
2023-04-22T13:56:31.017Z,94274.88
2023-04-22T13:59:39.552Z,94278.56
2023-04-22T14:02:48.120Z,94272.44
2023-04-22T14:05:57.966Z,94271.72
2023-04-22T14:09:06.991Z,94268.16
2023-04-22T14:12:15.299Z,94268.53
2023-04-22T14:15:23.611Z,94269.84
2023-04-22T14:18:36.161Z,94262.41
2023-04-22T14:21:45.685Z,94261.63
2023-04-22T14:24:54.112Z,94262.88
2023-04-22T14:28:04.188Z,94254.44
2023-04-22T14:31:15.208Z,94260.22
2023-04-22T14:34:23.527Z,94247.09
2023-04-22T14:37:35.703Z,94253.91
2023-04-22T14:40:43.924Z,94242.34
2023-04-22T14:43:52.124Z,94244.50
2023-04-22T14:47:02.543Z,94249.03
2023-04-22T14:50:11.456Z,94246.41
2023-04-22T14:53:21.799Z,94243.25
2023-04-22T14:56:30.700Z,94240.34
2023-04-22T14:59:39.242Z,94241.03
2023-04-22T15:02:48.190Z,94240.38
2023-04-22T15:05:58.020Z,94238.47
2023-04-22T15:09:12.494Z,94238.97
2023-04-22T15:12:21.172Z,94236.84
2023-04-22T15:15:29.699Z,94242.19
2023-04-22T15:18:38.017Z,94237.34
2023-04-22T15:21:46.771Z,94241.38
2023-04-22T15:24:56.362Z,94246.59
2023-04-22T15:28:04.888Z,94243.78
2023-04-22T15:31:14.017Z,94238.75
2023-04-22T15:34:22.613Z,94235.22
2023-04-22T15:37:30.798Z,94236.34
2023-04-22T15:40:40.832Z,94236.91
2023-04-22T15:43:51.752Z,94233.19
2023-04-22T15:47:00.563Z,94242.69
2023-04-22T15:50:11.003Z,94242.69
2023-04-22T15:53:19.553Z,94239.91
2023-04-22T15:56:29.993Z,94242.22
2023-04-22T15:59:38.392Z,94240.19
2023-04-22T16:02:54.790Z,94233.91
2023-04-22T16:06:03.693Z,94238.06
2023-04-22T16:09:12.000Z,94239.44
2023-04-22T16:12:21.542Z,94233.91
2023-04-22T16:15:30.034Z,94238.06
2023-04-22T16:18:42.843Z,94242.72
2023-04-22T16:21:52.457Z,94248.53
2023-04-22T16:25:00.856Z,94243.47
2023-04-22T16:28:11.366Z,94242.78
2023-04-22T16:31:22.887Z,94238.81
2023-04-22T16:34:31.611Z,94248.59
2023-04-22T16:37:40.050Z,94246.75
2023-04-22T16:40:48.469Z,94248.97
2023-04-22T16:43:58.504Z,94248.00
2023-04-22T16:47:07.996Z,94248.88
2023-04-22T16:50:17.161Z,94254.28
2023-04-22T16:53:25.280Z,94247.28
2023-04-22T16:56:33.426Z,94251.09
2023-04-22T16:59:43.029Z,94245.44
2023-04-22T17:02:51.595Z,94250.94
2023-04-22T17:06:00.050Z,94240.94
2023-04-22T17:09:10.029Z,94249.63
2023-04-22T17:12:19.230Z,94248.88
2023-04-22T17:15:29.101Z,94240.28
2023-04-22T17:18:37.815Z,94241.97
2023-04-22T17:21:46.613Z,94237.38
2023-04-22T17:24:56.652Z,94241.72
2023-04-22T17:28:05.042Z,94240.91
2023-04-22T17:31:14.842Z,94248.19
2023-04-22T17:34:23.041Z,94247.94
2023-04-22T17:37:31.582Z,94250.34
2023-04-22T17:40:40.227Z,94255.19
2023-04-22T17:43:48.615Z,94259.97
2023-04-22T17:46:58.188Z,94255.06
2023-04-22T17:50:08.002Z,94260.91
2023-04-22T17:53:16.229Z,94266.53
2023-04-22T17:56:24.879Z,94260.78
2023-04-22T17:59:33.250Z,94268.63
2023-04-22T18:02:43.497Z,94267.38
2023-04-22T18:05:51.966Z,94260.19
2023-04-22T18:09:00.146Z,94269.25
2023-04-22T18:12:08.377Z,94264.59
2023-04-22T18:15:16.976Z,94266.22
2023-04-22T18:18:26.523Z,94272.06
2023-04-22T18:21:35.190Z,94274.19
2023-04-22T18:24:44.770Z,94283.78
2023-04-22T18:27:55.133Z,94282.88
2023-04-22T18:31:04.205Z,94284.28
2023-04-22T18:34:15.735Z,94285.78
2023-04-22T18:37:24.702Z,94297.50
2023-04-22T18:40:33.338Z,94300.16
2023-04-22T18:43:42.078Z,94302.47
2023-04-22T18:46:50.466Z,94297.06
2023-04-22T18:50:00.390Z,94300.69
2023-04-22T18:53:09.010Z,94309.16
2023-04-22T18:56:17.153Z,94309.63
2023-04-22T18:59:25.755Z,94311.72
2023-04-22T19:02:36.504Z,94313.59
2023-04-22T19:05:48.120Z,94313.13
2023-04-22T19:08:57.057Z,94318.91
2023-04-22T19:12:06.496Z,94315.81
2023-04-22T19:15:15.151Z,94324.63
2023-04-22T19:18:23.327Z,94322.47
2023-04-22T19:21:33.389Z,94325.50
2023-04-22T19:24:41.604Z,94329.22
2023-04-22T19:27:49.972Z,94336.13
2023-04-22T19:31:00.034Z,94339.25
2023-04-22T19:34:08.221Z,94346.94
2023-04-22T19:37:18.497Z,94346.88
2023-04-22T19:40:26.688Z,94346.06
2023-04-22T19:43:36.328Z,94339.72
2023-04-22T19:46:45.409Z,94344.09
2023-04-22T19:49:54.612Z,94348.66
2023-04-22T19:53:06.305Z,94352.53
2023-04-22T19:56:15.706Z,94350.16
2023-04-22T19:59:24.554Z,94344.22
2023-04-22T20:02:33.656Z,94345.47
2023-04-22T20:05:44.216Z,94355.03
2023-04-22T20:08:59.729Z,94364.59
2023-04-22T20:12:09.354Z,94357.66
2023-04-22T20:15:18.362Z,94375.88
2023-04-22T20:18:27.004Z,94370.84
2023-04-22T20:21:39.753Z,94378.56
2023-04-22T20:25:03.609Z,94376.13
2023-04-22T20:28:12.556Z,94377.75
2023-04-22T20:31:23.372Z,94367.84
2023-04-22T20:34:33.332Z,94374.19
2023-04-22T20:37:42.664Z,94375.81
2023-04-22T20:40:53.994Z,94380.44
2023-04-22T20:44:02.136Z,94367.19
2023-04-22T20:47:10.925Z,94374.59
2023-04-22T20:50:20.676Z,94380.03
2023-04-22T20:53:29.604Z,94376.03
2023-04-22T20:56:40.510Z,94374.53
2023-04-22T20:59:48.663Z,94366.44
2023-04-22T21:02:57.604Z,94380.28
2023-04-22T21:06:08.609Z,94371.50
2023-04-22T21:09:18.338Z,94379.25
2023-04-22T21:12:28.806Z,94376.47
2023-04-22T21:15:39.887Z,94382.41
2023-04-22T21:18:55.920Z,94388.72
2023-04-22T21:22:07.480Z,94394.88
2023-04-22T21:25:23.203Z,94400.41
2023-04-22T21:28:34.163Z,94399.94
2023-04-22T21:31:42.558Z,94399.53
2023-04-22T21:34:51.484Z,94401.25
2023-04-22T21:38:01.812Z,94401.75
2023-04-22T21:41:11.503Z,94414.88
2023-04-22T21:44:21.375Z,94409.41
2023-04-22T21:47:29.694Z,94404.06
2023-04-22T21:50:38.996Z,94408.72
2023-04-22T21:53:47.734Z,94406.28
2023-04-22T21:56:56.976Z,94413.59
2023-04-22T22:00:15.628Z,94412.06
2023-04-22T22:03:24.012Z,94408.59
2023-04-22T22:06:33.304Z,94411.41
2023-04-22T22:09:43.982Z,94415.09
2023-04-22T22:12:52.857Z,94413.47
2023-04-22T22:16:02.484Z,94404.41
2023-04-22T22:19:11.382Z,94411.13
2023-04-22T22:22:19.554Z,94415.47
2023-04-22T22:25:27.649Z,94405.31
2023-04-22T22:28:36.052Z,94404.75
2023-04-22T22:31:47.297Z,94409.75
2023-04-22T22:34:55.513Z,94408.59
2023-04-22T22:38:03.657Z,94412.53
2023-04-22T22:41:12.239Z,94410.81
2023-04-22T22:44:20.473Z,94408.72
2023-04-22T22:47:30.925Z,94417.78
2023-04-22T22:50:39.858Z,94417.78
2023-04-22T22:53:48.109Z,94422.78
2023-04-22T22:56:57.795Z,94418.84
2023-04-22T23:00:10.302Z,94427.78
2023-04-22T23:03:20.384Z,94424.53
2023-04-22T23:06:28.636Z,94415.91
2023-04-22T23:09:36.742Z,94409.63
2023-04-22T23:12:44.853Z,94409.50
2023-04-22T23:15:53.001Z,94402.31
2023-04-22T23:19:04.272Z,94412.88
2023-04-22T23:22:13.124Z,94408.25
2023-04-22T23:25:21.863Z,94407.06
2023-04-22T23:28:30.871Z,94415.09
2023-04-22T23:31:42.695Z,94420.09
2023-04-22T23:34:55.387Z,94416.72
2023-04-22T23:38:06.705Z,94408.25
2023-04-22T23:41:14.917Z,94408.13
2023-04-22T23:44:23.459Z,94407.19
2023-04-22T23:47:32.081Z,94409.75
2023-04-22T23:50:41.742Z,94403.25
2023-04-22T23:53:49.967Z,94405.44
2023-04-22T23:56:58.987Z,94403.34
